createdAt,value
2022-12-14T00:02:44.891Z,64.91
2022-12-14T00:05:48.829Z,64.60
2022-12-14T00:08:55.327Z,64.10
2022-12-14T00:12:00.569Z,64.34
2022-12-14T00:15:04.664Z,66.46
2022-12-14T00:18:08.930Z,67.22
2022-12-14T00:21:14.889Z,67.13
2022-12-14T00:24:19.017Z,68.93
2022-12-14T00:27:24.233Z,68.94
2022-12-14T00:30:28.744Z,68.10
2022-12-14T00:33:32.917Z,68.92
2022-12-14T00:36:38.255Z,67.82
2022-12-14T00:39:42.070Z,67.02
2022-12-14T00:42:47.639Z,66.32
2022-12-14T00:45:52.015Z,65.25
2022-12-14T00:48:56.649Z,65.73
2022-12-14T00:52:00.516Z,64.87
2022-12-14T00:55:04.482Z,64.81
2022-12-14T00:58:11.533Z,64.86
2022-12-14T01:01:15.502Z,63.63
2022-12-14T01:04:21.688Z,63.11
2022-12-14T01:07:25.875Z,63.67
2022-12-14T01:10:30.116Z,63.02
2022-12-14T01:13:36.192Z,62.29
2022-12-14T01:16:40.069Z,63.36
2022-12-14T01:19:43.916Z,63.76
2022-12-14T01:22:56.066Z,63.16
2022-12-14T01:26:01.297Z,63.12
2022-12-14T01:29:07.575Z,63.66
2022-12-14T01:32:11.550Z,63.31
2022-12-14T01:35:15.664Z,63.48
2022-12-14T01:38:19.370Z,63.13
2022-12-14T01:41:27.362Z,63.19
2022-12-14T01:44:58.557Z,63.29
2022-12-14T01:48:05.117Z,63.30
2022-12-14T01:51:08.976Z,63.41
2022-12-14T01:54:15.718Z,62.33
2022-12-14T01:57:24.396Z,61.97
2022-12-14T02:00:30.540Z,62.26
2022-12-14T02:03:37.009Z,61.66
2022-12-14T02:06:44.269Z,61.67
2022-12-14T02:09:49.590Z,62.17
2022-12-14T02:13:00.771Z,61.71
2022-12-14T02:16:06.687Z,62.53
2022-12-14T02:19:10.597Z,61.99
2022-12-14T02:22:45.516Z,61.90
2022-12-14T02:26:37.939Z,61.78
2022-12-14T02:29:55.936Z,61.69
2022-12-14T02:33:14.548Z,62.17
2022-12-14T02:36:27.196Z,62.46
2022-12-14T02:39:42.833Z,62.53
2022-12-14T02:42:56.296Z,62.95
2022-12-14T02:46:08.496Z,62.44
2022-12-14T02:49:16.496Z,63.21
2022-12-14T02:52:30.157Z,62.86
2022-12-14T02:55:38.576Z,63.44
2022-12-14T02:58:46.876Z,63.29
2022-12-14T03:01:54.032Z,62.64
2022-12-14T03:04:58.069Z,63.08
2022-12-14T03:08:04.909Z,62.73
2022-12-14T03:11:09.190Z,62.80
2022-12-14T03:14:20.421Z,62.96
2022-12-14T03:17:29.517Z,62.63
2022-12-14T03:20:37.157Z,62.74
2022-12-14T03:23:44.567Z,62.75
2022-12-14T03:26:55.056Z,63.18
2022-12-14T03:30:02.899Z,64.25
2022-12-14T03:33:14.628Z,63.35
2022-12-14T03:36:23.514Z,63.25
2022-12-14T03:39:32.081Z,63.89
2022-12-14T03:42:43.225Z,63.68
2022-12-14T03:46:00.922Z,62.92
2022-12-14T03:49:14.586Z,63.09
2022-12-14T03:52:26.698Z,62.96
2022-12-14T03:55:38.370Z,63.62
2022-12-14T03:58:56.804Z,63.37
2022-12-14T04:02:05.463Z,64.26
2022-12-14T04:05:18.444Z,63.31
2022-12-14T04:08:28.592Z,63.55
2022-12-14T04:11:55.356Z,63.99
2022-12-14T04:15:28.409Z,63.33
2022-12-14T04:18:59.531Z,62.84
2022-12-14T04:22:10.589Z,63.39
2022-12-14T04:25:36.191Z,64.12
2022-12-14T04:29:04.238Z,64.27
2022-12-14T04:32:13.115Z,63.90
2022-12-14T04:35:22.377Z,64.18
2022-12-14T04:38:34.715Z,64.41
2022-12-14T04:41:43.406Z,64.67
2022-12-14T04:44:52.020Z,64.49
2022-12-14T04:48:01.990Z,63.56
2022-12-14T04:51:12.316Z,64.62
2022-12-14T04:54:25.150Z,64.41
2022-12-14T04:57:35.556Z,64.96
2022-12-14T05:00:54.282Z,64.64
2022-12-14T05:04:12.483Z,65.60
2022-12-14T05:07:24.696Z,65.31
2022-12-14T05:10:37.917Z,66.81
2022-12-14T05:13:48.850Z,66.64
2022-12-14T05:16:53.141Z,67.20
2022-12-14T05:19:57.456Z,67.31
2022-12-14T05:23:02.391Z,66.37
2022-12-14T05:26:07.650Z,65.85
2022-12-14T05:29:11.583Z,66.25
2022-12-14T05:32:15.396Z,65.91
2022-12-14T05:35:19.357Z,66.48
2022-12-14T05:38:23.172Z,66.12
2022-12-14T05:41:28.417Z,66.57
2022-12-14T05:44:32.452Z,66.30
2022-12-14T05:47:36.389Z,65.41
2022-12-14T05:50:40.195Z,66.55
2022-12-14T05:53:44.253Z,65.62
2022-12-14T05:56:49.449Z,65.01
2022-12-14T05:59:53.257Z,64.77
2022-12-14T06:02:57.182Z,64.59
2022-12-14T06:06:04.395Z,64.74
2022-12-14T06:09:09.189Z,64.42
2022-12-14T06:12:14.549Z,64.16
2022-12-14T06:15:18.617Z,65.11
2022-12-14T06:18:24.511Z,65.11
2022-12-14T06:21:30.874Z,64.51
2022-12-14T06:24:34.756Z,64.82
2022-12-14T06:27:39.918Z,64.28
2022-12-14T06:30:43.996Z,63.33
2022-12-14T06:33:49.609Z,64.10
2022-12-14T06:36:53.456Z,65.35
2022-12-14T06:39:57.317Z,64.79
2022-12-14T06:43:02.658Z,64.16
2022-12-14T06:46:14.787Z,63.87
2022-12-14T06:49:19.477Z,63.28
2022-12-14T06:52:26.656Z,63.27
2022-12-14T06:55:31.075Z,63.64
2022-12-14T06:58:36.450Z,60.80
2022-12-14T07:01:41.256Z,61.25
2022-12-14T07:04:45.250Z,61.55
2022-12-14T07:07:49.396Z,59.65
2022-12-14T07:10:57.517Z,58.48
2022-12-14T07:14:07.499Z,58.49
2022-12-14T07:17:11.213Z,57.30
2022-12-14T07:20:15.718Z,55.67
2022-12-14T07:23:23.399Z,54.35
2022-12-14T07:26:30.869Z,54.47
2022-12-14T07:29:36.536Z,52.81
2022-12-14T07:32:40.437Z,52.53
2022-12-14T07:35:44.257Z,51.81
2022-12-14T07:38:49.821Z,50.96
2022-12-14T07:41:54.849Z,51.03
2022-12-14T07:45:01.458Z,53.54
2022-12-14T07:48:07.752Z,52.29
2022-12-14T07:51:13.675Z,52.98
2022-12-14T07:54:17.616Z,52.86
2022-12-14T07:57:21.418Z,52.28
2022-12-14T08:00:26.912Z,52.67
2022-12-14T08:03:31.006Z,52.98
2022-12-14T08:06:36.132Z,52.46
2022-12-14T08:09:40.035Z,52.14
2022-12-14T08:12:43.832Z,51.96
2022-12-14T08:15:49.015Z,51.32
2022-12-14T08:18:55.030Z,51.46
2022-12-14T08:21:58.828Z,51.75
2022-12-14T08:25:02.688Z,52.05
2022-12-14T08:28:06.959Z,52.21
2022-12-14T08:31:14.919Z,52.17
2022-12-14T08:34:23.088Z,52.27
2022-12-14T08:37:26.996Z,51.40
2022-12-14T08:40:31.090Z,51.14
2022-12-14T08:43:35.176Z,49.93
2022-12-14T08:46:40.630Z,50.30
2022-12-14T08:49:44.497Z,49.19
2022-12-14T08:52:49.030Z,48.46
2022-12-14T08:55:53.111Z,47.95
2022-12-14T08:58:58.056Z,48.94
2022-12-14T09:02:03.603Z,48.65
2022-12-14T09:05:08.250Z,47.70
2022-12-14T09:08:12.156Z,47.02
2022-12-14T09:11:17.569Z,47.21
2022-12-14T09:14:21.652Z,45.80
2022-12-14T09:17:27.017Z,43.89
2022-12-14T09:20:30.869Z,43.75
2022-12-14T09:23:35.788Z,43.28
2022-12-14T09:26:39.530Z,44.02
2022-12-14T09:29:43.377Z,44.00
2022-12-14T09:32:50.610Z,44.10
2022-12-14T09:35:54.859Z,43.47
2022-12-14T09:38:59.777Z,43.33
2022-12-14T09:42:15.409Z,42.77
2022-12-14T09:45:24.516Z,43.37
2022-12-14T09:48:30.090Z,43.93
2022-12-14T09:51:37.404Z,45.00
2022-12-14T09:54:41.896Z,44.47
2022-12-14T09:57:47.010Z,44.72
2022-12-14T10:00:57.651Z,45.23
2022-12-14T10:04:12.958Z,44.81
2022-12-14T10:07:22.623Z,45.03
2022-12-14T10:10:30.573Z,45.05
2022-12-14T10:13:46.677Z,44.52
2022-12-14T10:16:56.555Z,43.97
2022-12-14T10:20:06.595Z,43.56
2022-12-14T10:23:21.029Z,43.30
2022-12-14T10:26:33.791Z,44.01
2022-12-14T10:29:43.609Z,44.24
2022-12-14T10:32:52.606Z,45.29
2022-12-14T10:36:06.709Z,43.80
2022-12-14T10:39:24.129Z,42.59
2022-12-14T10:42:38.778Z,41.24
2022-12-14T10:45:47.285Z,41.34
2022-12-14T10:48:58.436Z,42.93
2022-12-14T10:52:07.469Z,41.75
2022-12-14T10:55:16.889Z,41.86
2022-12-14T10:58:20.657Z,41.20
2022-12-14T11:01:24.619Z,41.56
2022-12-14T11:04:35.131Z,43.08
2022-12-14T11:07:43.636Z,43.04
2022-12-14T11:10:47.549Z,42.79
2022-12-14T11:13:53.755Z,41.83
2022-12-14T11:16:57.865Z,43.43
2022-12-14T11:20:18.549Z,44.17
2022-12-14T11:23:28.337Z,43.93
2022-12-14T11:26:37.315Z,45.77
2022-12-14T11:29:45.956Z,43.51
2022-12-14T11:32:50.415Z,42.98
2022-12-14T11:35:54.777Z,42.58
2022-12-14T11:39:01.954Z,42.48
2022-12-14T11:42:07.040Z,42.01
2022-12-14T11:45:29.856Z,42.06
2022-12-14T11:48:37.071Z,43.08
2022-12-14T11:51:56.084Z,42.91
2022-12-14T11:55:13.878Z,43.93
2022-12-14T11:58:20.836Z,44.57
2022-12-14T12:01:27.422Z,44.65
2022-12-14T12:04:32.017Z,46.05
2022-12-14T12:07:38.816Z,46.36
2022-12-14T12:10:49.937Z,46.96
2022-12-14T12:14:00.578Z,47.80
2022-12-14T12:17:18.416Z,47.55
2022-12-14T12:20:31.537Z,47.59
2022-12-14T12:23:43.096Z,47.70
2022-12-14T12:26:52.444Z,48.28
2022-12-14T12:30:03.936Z,49.06
2022-12-14T12:33:21.716Z,49.61
2022-12-14T12:36:26.236Z,49.31
2022-12-14T12:39:31.889Z,49.47
2022-12-14T12:42:47.417Z,50.19
2022-12-14T12:45:55.973Z,51.22
2022-12-14T12:49:06.616Z,50.54
2022-12-14T12:52:20.890Z,51.21
2022-12-14T12:55:27.154Z,51.01
2022-12-14T12:58:34.870Z,51.00
2022-12-14T13:01:42.479Z,50.24
2022-12-14T13:04:52.716Z,49.97
2022-12-14T13:08:01.120Z,50.02
2022-12-14T13:11:28.338Z,49.61
2022-12-14T13:14:39.795Z,50.11
2022-12-14T13:17:49.449Z,49.97
2022-12-14T13:20:53.856Z,48.76
2022-12-14T13:23:58.420Z,50.03
2022-12-14T13:27:31.077Z,50.15
2022-12-14T13:30:49.712Z,49.94
2022-12-14T13:34:20.607Z,49.86
2022-12-14T13:37:46.366Z,50.27
2022-12-14T13:41:20.515Z,51.54
2022-12-14T13:44:46.313Z,51.17
2022-12-14T13:47:55.665Z,51.31
2022-12-14T13:51:03.467Z,50.47
2022-12-14T13:54:19.747Z,50.77
2022-12-14T13:57:26.813Z,50.89
2022-12-14T14:01:01.726Z,51.42
2022-12-14T14:07:52.062Z,52.02
2022-12-14T14:11:13.916Z,52.15
2022-12-14T14:14:30.996Z,51.99
2022-12-14T14:17:39.902Z,52.12
2022-12-14T14:20:46.758Z,52.53
2022-12-14T14:23:59.272Z,53.08
2022-12-14T14:27:12.493Z,54.21
2022-12-14T14:30:28.086Z,54.35
2022-12-14T14:33:46.591Z,54.71
2022-12-14T14:36:52.571Z,54.08
2022-12-14T14:40:18.339Z,55.74
2022-12-14T14:43:30.703Z,56.52
2022-12-14T14:46:39.316Z,56.52
2022-12-14T14:49:46.369Z,56.79
2022-12-14T14:53:02.392Z,57.62
2022-12-14T14:56:14.653Z,57.01
2022-12-14T14:59:50.990Z,57.05
2022-12-14T15:02:56.101Z,57.45
2022-12-14T15:06:00.993Z,57.64
2022-12-14T15:09:08.813Z,57.62
2022-12-14T15:12:31.202Z,58.14
2022-12-14T15:15:38.889Z,58.09
2022-12-14T15:18:42.653Z,58.18
2022-12-14T15:21:47.645Z,59.41
2022-12-14T15:24:53.965Z,59.11
2022-12-14T15:28:05.698Z,59.30
2022-12-14T15:31:09.623Z,59.13
2022-12-14T15:34:17.975Z,58.36
2022-12-14T15:37:28.331Z,58.30
2022-12-14T15:40:32.926Z,59.51
2022-12-14T15:43:45.192Z,58.66
2022-12-14T15:46:56.515Z,58.79
2022-12-14T15:50:19.352Z,58.58
2022-12-14T15:53:32.124Z,58.43
2022-12-14T15:56:39.711Z,58.41
2022-12-14T15:59:47.486Z,58.15
2022-12-14T16:02:53.817Z,58.71
2022-12-14T16:05:59.160Z,58.05
2022-12-14T16:09:07.197Z,58.16
2022-12-14T16:12:18.535Z,59.49
2022-12-14T16:15:25.978Z,58.65
2022-12-14T16:18:29.785Z,58.62
2022-12-14T16:21:35.875Z,58.05
2022-12-14T16:24:40.116Z,58.26
2022-12-14T16:27:46.163Z,58.50
2022-12-14T16:30:59.546Z,58.20
2022-12-14T16:34:09.892Z,58.55
2022-12-14T16:37:34.583Z,58.71
2022-12-14T16:40:41.125Z,58.72
2022-12-14T16:43:57.356Z,58.47
2022-12-14T16:47:26.165Z,58.38
2022-12-14T16:53:54.876Z,58.73
2022-12-14T16:57:04.471Z,58.32
2022-12-14T17:00:20.481Z,58.23
2022-12-14T17:03:26.052Z,58.57
2022-12-14T17:06:38.186Z,58.13
2022-12-14T17:09:41.977Z,58.14
2022-12-14T17:12:46.092Z,57.79
2022-12-14T17:15:58.754Z,58.17
2022-12-14T17:19:05.145Z,57.64
2022-12-14T17:22:17.762Z,58.10
2022-12-14T17:25:22.436Z,58.16
2022-12-14T17:28:29.255Z,58.33
2022-12-14T17:31:32.942Z,58.35
2022-12-14T17:34:38.165Z,58.41
2022-12-14T17:37:41.915Z,57.69
2022-12-14T17:40:47.167Z,57.78
2022-12-14T17:43:56.666Z,57.90
2022-12-14T17:47:01.032Z,57.89
2022-12-14T17:50:07.187Z,58.11
2022-12-14T17:53:14.804Z,57.56
2022-12-14T17:56:18.579Z,57.79
2022-12-14T17:59:22.244Z,57.96
2022-12-14T18:02:29.017Z,57.27
2022-12-14T18:05:34.947Z,57.63
2022-12-14T18:08:38.616Z,57.46
2022-12-14T18:12:13.958Z,56.97
2022-12-14T18:15:11.946Z,57.65
2022-12-14T18:18:16.086Z,58.02
2022-12-14T18:21:24.103Z,58.46
2022-12-14T18:24:27.932Z,58.21
2022-12-14T18:27:31.750Z,59.17
2022-12-14T18:30:43.093Z,59.11
2022-12-14T18:33:49.812Z,59.01
2022-12-14T18:36:55.102Z,59.42
2022-12-14T18:39:58.885Z,59.66
2022-12-14T18:43:02.626Z,62.49
2022-12-14T18:46:06.684Z,63.97
2022-12-14T18:49:10.498Z,64.09
2022-12-14T18:52:16.147Z,64.17
2022-12-14T18:55:22.403Z,62.31
2022-12-14T18:58:28.254Z,62.56
2022-12-14T19:01:32.152Z,61.52
2022-12-14T19:04:35.970Z,60.48
2022-12-14T19:07:41.174Z,60.68
2022-12-14T19:10:48.060Z,60.68
2022-12-14T19:13:51.946Z,60.52
2022-12-14T19:16:55.656Z,60.62
2022-12-14T19:19:59.356Z,61.52
2022-12-14T19:23:04.567Z,60.85
2022-12-14T19:26:08.372Z,61.04
2022-12-14T19:29:12.116Z,61.34
2022-12-14T19:32:15.796Z,62.27
2022-12-14T19:35:20.306Z,61.97
2022-12-14T19:38:25.585Z,63.22
2022-12-14T19:41:29.324Z,64.21
2022-12-14T19:44:35.082Z,64.41
2022-12-14T19:47:38.956Z,66.15
2022-12-14T19:50:42.751Z,64.80
2022-12-14T19:53:56.211Z,65.81
2022-12-14T19:56:59.892Z,66.72
2022-12-14T20:00:03.992Z,66.69
2022-12-14T20:03:13.471Z,68.21
2022-12-14T20:06:17.304Z,67.54
2022-12-14T20:09:22.542Z,66.92
2022-12-14T20:12:26.397Z,67.49
2022-12-14T20:15:30.187Z,68.75
2022-12-14T20:18:34.054Z,68.65
2022-12-14T20:21:37.823Z,68.59
2022-12-14T20:24:43.286Z,68.90
2022-12-14T20:27:46.987Z,68.10
2022-12-14T20:30:51.043Z,69.02
2022-12-14T20:33:55.193Z,68.78
2022-12-14T20:36:59.046Z,68.52
2022-12-14T20:40:04.422Z,69.14
2022-12-14T20:43:08.472Z,70.10
2022-12-14T20:46:26.528Z,69.86
2022-12-14T20:49:33.043Z,71.50
2022-12-14T20:52:36.769Z,72.13
2022-12-14T20:55:41.886Z,71.60
2022-12-14T20:58:49.526Z,71.38
2022-12-14T21:01:56.145Z,71.99
2022-12-14T21:05:00.622Z,74.19
2022-12-14T21:08:04.387Z,73.92
2022-12-14T21:11:23.389Z,74.41
2022-12-14T21:14:29.699Z,75.50
2022-12-14T21:17:33.933Z,74.45
2022-12-14T21:20:38.352Z,74.73
2022-12-14T21:23:42.684Z,73.66
2022-12-14T21:26:47.861Z,73.77
2022-12-14T21:29:54.077Z,74.16
2022-12-14T21:32:58.870Z,74.07
2022-12-14T21:36:07.718Z,73.79
2022-12-14T21:39:13.311Z,74.02
2022-12-14T21:42:20.740Z,74.66
2022-12-14T21:45:24.473Z,73.83
2022-12-14T21:48:28.312Z,74.40
2022-12-14T21:51:32.065Z,74.60
2022-12-14T21:54:36.052Z,74.90
2022-12-14T21:57:58.703Z,75.26
2022-12-14T22:01:08.377Z,75.01
2022-12-14T22:04:12.332Z,75.49
2022-12-14T22:07:17.286Z,74.49
2022-12-14T22:10:24.893Z,74.99
2022-12-14T22:13:30.924Z,73.82
2022-12-14T22:16:36.189Z,75.60
2022-12-14T22:19:39.945Z,75.09
2022-12-14T22:22:43.602Z,74.73
2022-12-14T22:25:51.245Z,75.33
2022-12-14T22:28:56.465Z,75.04
2022-12-14T22:32:00.256Z,74.69
2022-12-14T22:35:04.120Z,74.93
2022-12-14T22:38:07.893Z,74.53
2022-12-14T22:41:14.313Z,73.88
2022-12-14T22:44:19.536Z,73.52
2022-12-14T22:47:23.244Z,74.74
2022-12-14T22:50:26.856Z,74.08
2022-12-14T22:53:31.779Z,74.96
2022-12-14T22:56:40.555Z,74.53
2022-12-14T22:59:51.355Z,74.24
2022-12-14T23:02:56.246Z,74.18
2022-12-14T23:06:02.226Z,73.71
2022-12-14T23:09:24.190Z,73.75
2022-12-14T23:12:44.957Z,73.82
2022-12-14T23:16:07.551Z,74.01
2022-12-14T23:19:28.383Z,74.22
2022-12-14T23:22:49.605Z,73.77
2022-12-14T23:26:11.225Z,73.76
2022-12-14T23:29:32.249Z,74.40
2022-12-14T23:32:55.101Z,74.41
2022-12-14T23:36:19.773Z,73.49
2022-12-14T23:39:40.977Z,73.72
2022-12-14T23:43:02.033Z,73.80
2022-12-14T23:46:24.021Z,72.81
2022-12-14T23:49:46.948Z,74.14
2022-12-14T23:53:07.606Z,72.40
2022-12-14T23:56:28.555Z,73.62
2022-12-14T23:59:49.930Z,74.77
